Time;durP1;ratioP1;P1;durP2;ratioP2;P2;SDS_P1;SDS_P2;PMS_P1;PMS_P2;Temp;Humidity;BMP_temperature;BMP_pressure;BME280_temperature;BME280_humidity;BME280_pressure;Samples;Min_cycle;Max_cycle;Signal;HPM_P1;HPM_P2
2023/05/06 00:02:23;;;;;;;8.02;4.10;;;;;;;;;;4962323;28;20031;-85
2023/05/06 00:04:49;;;;;;;6.07;3.90;;;;;;;;;;4974748;28;20776;-84
2023/05/06 00:07:18;;;;;;;5.63;3.70;;;;;;;;;;4956326;28;20056;-84
2023/05/06 00:09:44;;;;;;;4.88;3.45;;;;;;;;;;4971144;28;20031;-83
2023/05/06 00:12:10;;;;;;;10.48;3.90;;;13.30;99.90;;;;;;4969289;28;20027;-85
2023/05/06 00:14:36;;;;;;;7.80;4.20;;;13.30;99.90;;;;;;4959045;28;20132;-85
2023/05/06 00:17:02;;;;;;;7.65;4.18;;;13.30;99.90;;;;;;4971139;28;20035;-85
2023/05/06 00:19:30;;;;;;;5.57;3.70;;;13.40;99.90;;;;;;4978944;28;20030;-82
2023/05/06 00:21:56;;;;;;;6.72;3.97;;;13.30;99.90;;;;;;4955864;28;20329;-85
2023/05/06 00:24:21;;;;;;;6.78;3.55;;;13.30;99.90;;;;;;4953907;28;20039;-82
2023/05/06 00:26:47;;;;;;;6.38;3.72;;;13.30;99.90;;;;;;4958207;28;20035;-83
2023/05/06 00:29:13;;;;;;;6.50;3.92;;;;;;;;;;4960980;28;20031;-83
2023/05/06 00:31:39;;;;;;;7.18;4.20;;;13.30;99.90;;;;;;4964512;28;20062;-87
2023/05/06 00:34:07;;;;;;;7.70;3.78;;;13.20;99.90;;;;;;4957986;28;20034;-86
2023/05/06 00:36:33;;;;;;;6.63;4.20;;;13.30;99.90;;;;;;4972216;28;20480;-86
2023/05/06 00:38:59;;;;;;;7.68;4.75;;;;;;;;;;4975849;28;20138;-83
2023/05/06 00:41:30;;;;;;;8.23;4.55;;;13.20;99.90;;;;;;4960401;28;20110;-85
2023/05/06 00:43:55;;;;;;;;;;;13.70;99.90;;;;;;4962139;28;20031;-83
2023/05/06 00:46:21;;;;;;;8.40;5.57;;;;;;;;;;4967234;28;19989;-84
2023/05/06 00:48:47;;;;;;;12.25;5.57;;;13.20;99.90;;;;;;4962883;28;20034;-85
2023/05/06 00:51:13;;;;;;;10.38;5.55;;;;;;;;;;4977205;28;20023;-83
2023/05/06 00:53:39;;;;;;;9.13;5.80;;;13.10;99.90;;;;;;4966155;28;20404;-85
2023/05/06 00:56:06;;;;;;;10.98;5.20;;;13.60;99.90;;;;;;4965038;28;20027;-87
2023/05/06 00:58:33;;;;;;;8.15;5.30;;;13.00;99.90;;;;;;4978615;28;20057;-85
2023/05/06 01:01:00;;;;;;;8.18;5.10;;;;;;;;;;4973642;28;20030;-84
2023/05/06 01:03:26;;;;;;;7.53;4.70;;;13.00;99.90;;;;;;4964155;28;20019;-87
2023/05/06 01:05:57;;;;;;;10.05;5.22;;;13.00;99.90;;;;;;4959930;28;20046;-84
2023/05/06 01:08:34;;;;;;;7.38;5.00;;;13.00;99.90;;;;;;4977653;28;20023;-85
2023/05/06 01:11:23;;;;;;;7.85;4.85;;;13.00;99.90;;;;;;4965700;28;20026;-86
2023/05/06 01:13:58;;;;;;;12.07;6.13;;;12.80;99.90;;;;;;4964715;28;20031;-87
2023/05/06 01:16:28;;;;;;;17.25;7.78;;;12.70;99.90;;;;;;4964708;28;20038;-86
2023/05/06 01:18:54;;;;;;;16.38;8.73;;;12.50;99.90;;;;;;4964199;28;20106;-84
2023/05/06 01:21:20;;;;;;;14.82;8.13;;;;;;;;;;4971198;28;20394;-84
2023/05/06 01:23:56;;;;;;;21.02;9.23;;;12.50;99.90;;;;;;4965816;28;20038;-83
2023/05/06 01:26:26;;;;;;;32.15;8.40;;;12.40;99.90;;;;;;4972084;28;20125;-83
2023/05/06 01:28:52;;;;;;;16.77;9.23;;;12.30;99.90;;;;;;4966152;28;20030;-84
2023/05/06 01:31:28;;;;;;;20.55;10.02;;;12.40;99.90;;;;;;4975364;28;20087;-85
2023/05/06 01:34:06;;;;;;;18.90;8.70;;;12.30;99.90;;;;;;4966267;28;20031;-86
2023/05/06 01:36:40;;;;;;;19.83;9.70;;;12.40;99.90;;;;;;4981480;28;20034;-85
2023/05/06 01:39:14;;;;;;;23.02;8.10;;;12.30;99.90;;;;;;4965814;28;20472;-87
2023/05/06 01:41:40;;;;;;;18.33;8.80;;;;;;;;;;4982969;28;20034;-86
2023/05/06 01:44:07;;;;;;;32.92;8.32;;;12.40;99.90;;;;;;4965496;28;20031;-86
2023/05/06 01:46:34;;;;;;;51.72;8.32;;;12.30;99.90;;;;;;4967741;28;20087;-83
2023/05/06 01:49:03;;;;;;;26.08;8.48;;;12.40;99.90;;;;;;4983870;28;20030;-85
2023/05/06 01:51:32;;;;;;;28.85;9.15;;;12.30;99.90;;;;;;4983076;28;20035;-84
2023/05/06 01:53:58;;;;;;;38.08;9.18;;;12.30;99.90;;;;;;4963590;28;20089;-84
2023/05/06 01:56:25;;;;;;;36.90;8.98;;;;;;;;;;4981403;28;20881;-87
2023/05/06 01:58:51;;;;;;;43.17;10.98;;;12.30;99.90;;;;;;4964229;28;20121;-84
2023/05/06 02:01:17;;;;;;;31.27;9.65;;;;;;;;;;4960585;28;20081;-86
2023/05/06 02:03:42;;;;;;;30.55;9.30;;;;;;;;;;4970617;28;20058;-86
2023/05/06 02:06:08;;;;;;;34.05;9.02;;;12.20;99.90;;;;;;4983001;28;20034;-86
2023/05/06 02:08:39;;;;;;;23.85;8.90;;;12.30;99.90;;;;;;4968972;28;20113;-86
2023/05/06 02:11:05;;;;;;;50.45;9.88;;;12.30;99.90;;;;;;4983970;28;20050;-81
2023/05/06 02:13:31;;;;;;;27.77;9.40;;;;;;;;;;4969332;28;20027;-84
2023/05/06 02:15:56;;;;;;;44.83;9.73;;;12.30;99.90;;;;;;4967014;28;20023;-84
2023/05/06 02:18:22;;;;;;;39.67;9.23;;;12.30;99.90;;;;;;4968849;28;20034;-85
2023/05/06 02:20:48;;;;;;;30.58;10.02;;;;;;;;;;4970907;28;20034;-85
2023/05/06 02:23:14;;;;;;;25.20;9.73;;;12.30;99.90;;;;;;4977787;28;20210;-86
2023/05/06 02:25:40;;;;;;;21.00;9.68;;;12.30;99.90;;;;;;4989866;28;20403;-86
2023/05/06 02:28:06;;;;;;;23.52;9.55;;;;;;;;;;4978465;28;20099;-86
2023/05/06 02:30:32;;;;;;;35.10;9.50;;;12.40;99.90;;;;;;4966291;29;20071;-85
2023/05/06 02:32:58;;;;;;;18.10;9.57;;;;;;;;;;4964828;29;20019;-87
2023/05/06 02:35:24;;;;;;;16.33;9.18;;;;;;;;;;4963010;29;20023;-84
2023/05/06 02:37:50;;;;;;;21.73;9.57;;;;;;;;;;4964527;28;20046;-87
2023/05/06 02:40:16;;;;;;;17.40;8.88;;;;;;;;;;4965442;29;20023;-87
2023/05/06 02:42:42;;;;;;;15.05;9.27;;;;;;;;;;4966189;29;20035;-86
2023/05/06 02:45:11;;;;;;;16.17;9.23;;;12.50;99.90;;;;;;4963846;29;20027;-86
2023/05/06 02:47:37;;;;;;;26.23;8.35;;;12.50;99.90;;;;;;4961088;28;20054;-84
2023/05/06 02:50:03;;;;;;;20.25;7.72;;;12.50;99.90;;;;;;4969145;28;20027;-86
2023/05/06 02:52:29;;;;;;;19.38;9.02;;;;;;;;;;4968706;28;20023;-85
2023/05/06 02:54:54;;;;;;;16.38;8.85;;;12.40;99.90;;;;;;4967597;28;20376;-86
2023/05/06 02:57:20;;;;;;;16.48;9.13;;;;;;;;;;4967684;28;20030;-83
2023/05/06 02:59:46;;;;;;;18.60;9.00;;;;;;;;;;4967372;28;20042;-81
2023/05/06 03:02:12;;;;;;;17.88;9.00;;;;;;;;;;4968050;28;20073;-83
2023/05/06 03:04:39;;;;;;;24.27;8.73;;;;;;;;;;4966820;28;20094;-85
2023/05/06 03:07:05;;;;;;;14.60;8.60;;;;;;;;;;4968623;28;20031;-84
2023/05/06 03:09:33;;;;;;;16.48;10.15;;;;;;;;;;4968365;28;20023;-82
2023/05/06 03:12:00;;;;;;;15.77;8.25;;;12.40;99.90;;;;;;4968018;28;20030;-87
2023/05/06 03:14:27;;;;;;;12.80;9.10;;;;;;;;;;4985060;28;20472;-85
2023/05/06 03:16:55;;;;;;;16.67;8.95;;;;;;;;;;4970560;28;20061;-83
2023/05/06 03:19:21;;;;;;;33.53;8.95;;;;;;;;;;4988339;28;20050;-83
2023/05/06 03:21:47;;;;;;;19.77;9.75;;;12.50;99.90;;;;;;4969336;28;20031;-82
2023/05/06 03:24:13;;;;;;;25.50;9.40;;;;;;;;;;4970557;28;20081;-79
2023/05/06 03:26:39;;;;;;;21.58;9.20;;;;;;;;;;4989307;28;20041;-84
2023/05/06 03:29:05;;;;;;;15.82;9.75;;;;;;;;;;4971628;28;20054;-85
2023/05/06 03:31:31;;;;;;;19.92;9.68;;;;;;;;;;4988588;28;20019;-85
2023/05/06 03:33:57;;;;;;;16.63;9.63;;;;;;;;;;4967723;28;20094;-85
2023/05/06 03:36:24;;;;;;;18.70;9.60;;;12.40;99.90;;;;;;4968339;28;20026;-83
2023/05/06 03:38:50;;;;;;;17.90;9.38;;;12.40;99.90;;;;;;4969181;28;20475;-84
2023/05/06 03:41:17;;;;;;;16.25;9.60;;;;;;;;;;4987505;28;20027;-85
2023/05/06 03:43:43;;;;;;;27.40;9.77;;;;;;;;;;4987765;28;20031;-86
2023/05/06 03:46:10;;;;;;;23.92;9.20;;;;;;;;;;4986579;28;20022;-86
2023/05/06 03:48:36;;;;;;;15.77;9.52;;;;;;;;;;4969559;28;20085;-82
2023/05/06 03:51:02;;;;;;;20.30;9.70;;;12.50;99.90;;;;;;4971194;28;20037;-85
2023/05/06 03:53:28;;;;;;;20.35;10.77;;;12.50;99.90;;;;;;4969975;28;20054;-84
2023/05/06 03:55:54;;;;;;;13.63;9.43;;;;;;;;;;4988894;28;20034;-83
2023/05/06 03:58:20;;;;;;;13.00;9.13;;;;;;;;;;4971819;28;20442;-87
2023/05/06 04:00:46;;;;;;;15.02;9.05;;;;;;;;;;4972961;28;20034;-83
2023/05/06 04:03:11;;;;;;;15.00;9.35;;;13.40;99.90;;;;;;4972060;23;20051;-80
2023/05/06 04:05:38;;;;;;;14.05;9.40;;;12.60;99.90;;;;;;4954313;28;20069;-79
2023/05/06 04:08:22;;;;;;;14.05;9.10;;;12.60;99.90;;;;;;4971689;28;20150;-80
2023/05/06 04:11:00;;;;;;;16.75;9.05;;;12.60;99.90;;;;;;4956715;28;20091;-81
2023/05/06 04:13:29;;;;;;;16.10;9.13;;;12.60;99.90;;;;;;4989163;28;20485;-79
2023/05/06 04:15:55;;;;;;;18.77;9.77;;;;;;;;;;4976149;28;20023;-79
2023/05/06 04:18:29;;;;;;;14.82;9.25;;;;;;;;;;5004702;28;20026;-80
2023/05/06 04:20:55;;;;;;;14.73;9.50;;;;;;;;;;5008207;28;20033;-80
2023/05/06 04:23:21;;;;;;;16.77;10.90;;;12.50;99.90;;;;;;5011905;28;20023;-79
2023/05/06 04:25:49;;;;;;;17.23;10.30;;;;;;;;;;4999017;28;20042;-79
2023/05/06 04:28:16;;;;;;;19.25;10.93;;;;;;;;;;4999842;28;20026;-79
2023/05/06 04:30:45;;;;;;;22.00;11.10;;;12.50;99.90;;;;;;4999148;28;20029;-79
2023/05/06 04:33:11;;;;;;;19.20;11.35;;;12.50;99.90;;;;;;4990741;28;20043;-80
2023/05/06 04:35:38;;;;;;;19.90;11.25;;;13.80;99.90;;;;;;4998910;28;20538;-80
2023/05/06 04:38:05;;;;;;;22.35;12.45;;;;;;;;;;4982650;28;20033;-80
2023/05/06 04:40:37;;;;;;;20.70;11.60;;;;;;;;;;5000916;28;20068;-81
2023/05/06 04:43:06;;;;;;;22.63;12.07;;;;;;;;;;4983354;28;20098;-80
2023/05/06 04:45:36;;;;;;;24.15;12.77;;;;;;;;;;4986697;28;20031;-81
2023/05/06 04:48:04;;;;;;;22.50;10.18;;;;;;;;;;4995597;28;20062;-78
2023/05/06 04:50:33;;;;;;;21.92;10.65;;;12.60;99.90;;;;;;4973033;28;20071;-81
2023/05/06 04:53:00;;;;;;;20.45;11.43;;;;;;;;;;4999091;28;20053;-80
2023/05/06 04:55:29;;;;;;;22.27;11.82;;;12.60;99.90;;;;;;4982298;28;20026;-81
2023/05/06 04:57:55;;;;;;;22.80;11.23;;;12.50;99.90;;;;;;4993870;28;20030;-81
2023/05/06 05:00:38;;;;;;;21.55;11.27;;;;;;;;;;4989945;28;20108;-81
2023/05/06 05:03:12;;;;;;;23.98;11.95;;;;;;;;;;4977275;28;20046;-80
2023/05/06 05:05:39;;;;;;;23.80;13.23;;;;;;;;;;4975537;28;20034;-81
2023/05/06 05:08:12;;;;;;;22.20;11.77;;;;;;;;;;4993953;28;20026;-80
2023/05/06 05:10:42;;;;;;;23.60;12.40;;;12.80;99.90;;;;;;4998349;28;20161;-79
2023/05/06 05:13:26;;;;;;;24.98;12.57;;;;;;;;;;4983145;28;20026;-80
2023/05/06 05:15:55;;;;;;;21.55;12.27;;;12.80;99.90;;;;;;5001573;28;20050;-82
2023/05/06 05:18:21;;;;;;;24.45;13.00;;;;;;;;;;5001908;28;20081;-81
2023/05/06 05:20:57;;;;;;;20.35;11.13;;;12.80;99.90;;;;;;5001774;28;20503;-81
2023/05/06 05:23:40;;;;;;;18.00;10.68;;;12.80;99.90;;;;;;4998499;28;20086;-79
2023/05/06 05:26:10;;;;;;;23.90;10.40;;;12.80;99.90;;;;;;5008173;28;20022;-77
2023/05/06 05:28:37;;;;;;;15.68;9.48;;;12.80;99.90;;;;;;4999834;28;20038;-80
2023/05/06 05:31:04;;;;;;;15.43;9.45;;;12.90;99.90;;;;;;5003816;28;20037;-82
2023/05/06 05:33:36;;;;;;;14.23;9.43;;;12.80;99.90;;;;;;5005807;28;20022;-81
2023/05/06 05:36:05;;;;;;;14.82;10.10;;;12.80;99.90;;;;;;5002826;28;20022;-80
2023/05/06 05:38:31;;;;;;;13.93;9.40;;;;;;;;;;4997266;28;20025;-78
2023/05/06 05:40:58;;;;;;;17.52;10.23;;;12.90;99.90;;;;;;4988900;28;20018;-80
2023/05/06 05:43:25;;;;;;;15.00;9.90;;;;;;;;;;4974666;28;20146;-80
2023/05/06 05:45:51;;;;;;;15.85;10.02;;;;;;;;;;5002678;28;20598;-80
2023/05/06 05:48:18;;;;;;;14.32;8.82;;;;;;;;;;4982648;28;20034;-80
2023/05/06 05:50:46;;;;;;;14.30;9.07;;;;;;;;;;5006270;28;20048;-79
2023/05/06 05:53:18;;;;;;;16.63;10.43;;;;;;;;;;5013482;28;20146;-80
2023/05/06 05:55:50;;;;;;;15.40;9.88;;;;;;;;;;5011193;28;20031;-79
2023/05/06 05:58:20;;;;;;;31.30;18.30;;;;;;;;;;4992329;28;20558;-80
2023/05/06 06:00:46;;;;;;;17.67;8.55;;;;;;;;;;4995997;28;20029;-80
2023/05/06 06:03:13;;;;;;;15.40;9.18;;;;;;;;;;4992396;28;20035;-80
2023/05/06 06:05:39;;;;;;;18.50;10.07;;;;;;;;;;4999913;28;20049;-81
2023/05/06 06:08:10;;;;;;;12.95;9.20;;;13.10;99.90;;;;;;4987486;28;20567;-78
2023/05/06 06:10:36;;;;;;;13.60;8.70;;;;;;;;;;4981866;28;20027;-79
2023/05/06 06:13:02;;;;;;;13.48;7.97;;;;;;;;;;4991177;28;20026;-79
2023/05/06 06:15:28;;;;;;;13.35;8.32;;;13.20;99.90;;;;;;5005626;28;20034;-81
2023/05/06 06:17:54;;;;;;;13.57;7.90;;;;;;;;;;4988728;28;20053;-81
2023/05/06 06:20:21;;;;;;;16.30;9.57;;;;;;;;;;4996850;28;20038;-81
2023/05/06 06:22:56;;;;;;;14.82;9.20;;;13.20;99.90;;;;;;5013462;28;20052;-80
2023/05/06 06:25:31;;;;;;;18.33;9.05;;;13.20;99.90;;;;;;4981332;28;20060;-80
2023/05/06 06:28:19;;;;;;;13.25;8.55;;;13.20;99.90;;;;;;4978485;28;20027;-80
2023/05/06 06:30:49;;;;;;;12.98;8.50;;;13.20;99.90;;;;;;4992248;28;20093;-78
2023/05/06 06:33:24;;;;;;;14.07;9.40;;;13.10;99.90;;;;;;4996584;28;20022;-79
2023/05/06 06:36:11;;;;;;;11.77;7.88;;;13.20;99.90;;;;;;4990919;28;20034;-80
2023/05/06 06:38:42;;;;;;;12.18;8.55;;;13.10;99.90;;;;;;4989455;28;20113;-80
2023/05/06 06:41:20;;;;;;;13.30;8.00;;;;;;;;;;4976891;28;20508;-80
2023/05/06 06:43:49;;;;;;;12.07;8.38;;;13.20;99.90;;;;;;4990418;28;20077;-81
2023/05/06 06:46:15;;;;;;;13.40;8.00;;;13.20;99.90;;;;;;4986128;28;20038;-82
2023/05/06 06:48:47;;;;;;;12.10;7.80;;;13.40;99.90;;;;;;4989837;28;20027;-80
2023/05/06 06:51:19;;;;;;;11.45;8.23;;;;;;;;;;4997252;28;20023;-80
2023/05/06 06:54:02;;;;;;;10.35;7.70;;;13.30;99.90;;;;;;4996063;28;20034;-80
2023/05/06 06:56:30;;;;;;;11.35;7.30;;;13.40;99.90;;;;;;4993000;28;20477;-81
2023/05/06 06:58:56;;;;;;;13.07;9.13;;;;;;;;;;4972724;28;20039;-80
2023/05/06 07:01:27;;;;;;;11.32;8.00;;;13.80;99.90;;;;;;4968335;28;20054;-81
2023/05/06 07:03:53;;;;;;;12.57;7.55;;;13.70;99.90;;;;;;4990096;28;20607;-81
2023/05/06 07:06:19;;;;;;;9.48;6.75;;;;;;;;;;4967986;28;20701;-83
2023/05/06 07:08:45;;;;;;;11.57;7.10;;;14.10;99.90;;;;;;4974941;28;20052;-82
2023/05/06 07:11:13;;;;;;;9.38;7.22;;;14.50;99.90;;;;;;4979072;28;20488;-81
2023/05/06 07:13:39;;;;;;;8.85;6.65;;;;;;;;;;4987060;28;20467;-80
2023/05/06 07:16:07;;;;;;;9.63;6.80;;;14.50;99.90;;;;;;4969367;28;20623;-81
2023/05/06 07:18:33;;;;;;;8.98;6.32;;;14.50;99.90;;;;;;4987839;28;20049;-84
2023/05/06 07:20:59;;;;;;;9.50;6.28;;;;;;;;;;4972380;28;20041;-83
2023/05/06 07:23:25;;;;;;;9.23;6.28;;;;;;;;;;4967658;28;20058;-82
2023/05/06 07:25:51;;;;;;;10.57;7.07;;;;;;;;;;4990029;28;20027;-81
2023/05/06 07:28:17;;;;;;;11.18;6.50;;;;;;;;;;4980357;28;20062;-81
2023/05/06 07:30:43;;;;;;;9.27;6.45;;;;;;;;;;4986404;28;20042;-83
2023/05/06 07:33:09;;;;;;;7.70;5.60;;;;;;;;;;4992887;28;20041;-82
2023/05/06 07:35:35;;;;;;;7.35;6.00;;;14.40;99.90;;;;;;4970421;28;20026;-81
2023/05/06 07:38:01;;;;;;;7.50;5.22;;;16.70;99.90;;;;;;4984843;28;20085;-82
2023/05/06 07:40:27;;;;;;;6.95;5.63;;;14.80;99.90;;;;;;4968778;28;20070;-84
2023/05/06 07:42:52;;;;;;;8.30;5.93;;;15.00;99.90;;;;;;4966597;28;20374;-83
2023/05/06 07:45:22;;;;;;;7.28;5.22;;;;;;;;;;4981625;28;20046;-81
2023/05/06 07:47:47;;;;;;;7.05;5.35;;;15.30;99.90;;;;;;4969627;28;20030;-79
2023/05/06 07:50:13;;;;;;;8.20;6.13;;;15.40;99.90;;;;;;4966662;28;20034;-81
2023/05/06 07:52:39;;;;;;;4.97;4.13;;;15.60;99.90;;;;;;4954385;28;20031;-81
2023/05/06 07:55:05;;;;;;;7.53;4.38;;;15.80;99.90;;;;;;4980338;28;20031;-79
2023/05/06 07:57:31;;;;;;;4.82;4.03;;;15.90;99.90;;;;;;4981701;28;20037;-85
2023/05/06 07:59:57;;;;;;;5.75;4.43;;;17.30;99.90;;;;;;4968831;28;20031;-81
2023/05/06 08:02:25;;;;;;;5.40;4.30;;;16.00;99.90;;;;;;4982723;28;20040;-82
2023/05/06 08:04:51;;;;;;;6.15;5.05;;;17.00;99.90;;;;;;4982164;28;20034;-80
2023/05/06 08:07:17;;;;;;;7.13;4.55;;;16.10;99.90;;;;;;4989387;28;20523;-81
2023/05/06 08:09:43;;;;;;;4.95;3.47;;;;;;;;;;4976819;28;20042;-83
2023/05/06 08:12:09;;;;;;;6.47;3.95;;;16.30;99.90;;;;;;4975398;28;20041;-80
2023/05/06 08:14:34;;;;;;;5.97;3.72;;;16.30;99.90;;;;;;4987625;28;20027;-80
2023/05/06 08:17:01;;;;;;;4.90;3.35;;;17.20;99.90;;;;;;4968590;28;20026;-83
2023/05/06 08:19:26;;;;;;;4.25;3.30;;;16.50;99.90;;;;;;4988325;28;20032;-84
2023/05/06 08:21:55;;;;;;;5.25;3.60;;;16.50;99.90;;;;;;4979593;28;20031;-82
2023/05/06 08:24:23;;;;;;;5.85;3.50;;;16.50;99.90;;;;;;4988113;28;20105;-81
2023/05/06 08:26:49;;;;;;;6.47;3.67;;;16.60;99.90;;;;;;4970999;28;20030;-82
2023/05/06 08:29:15;;;;;;;4.85;3.20;;;16.60;99.90;;;;;;4968701;28;20081;-82
2023/05/06 08:31:40;;;;;;;4.38;3.42;;;16.50;99.90;;;;;;4976474;28;20030;-82
2023/05/06 08:34:06;;;;;;;5.20;2.97;;;16.70;99.90;;;;;;4983529;28;20027;-80
2023/05/06 08:36:32;;;;;;;4.13;2.97;;;16.90;99.90;;;;;;4979184;28;20030;-81
2023/05/06 08:39:00;;;;;;;7.78;3.60;;;17.00;99.90;;;;;;4979118;28;20037;-81
2023/05/06 08:41:29;;;;;;;5.05;3.50;;;17.10;99.90;;;;;;4981864;28;20026;-80
2023/05/06 08:43:57;;;;;;;5.63;3.53;;;17.10;99.90;;;;;;4980878;28;20037;-83
2023/05/06 08:46:23;;;;;;;3.85;3.03;;;17.20;99.90;;;;;;4967054;28;20029;-84
2023/05/06 08:48:48;;;;;;;4.72;3.15;;;17.20;99.90;;;;;;4987364;28;20030;-81
2023/05/06 08:51:15;;;;;;;6.25;2.88;;;17.30;99.90;;;;;;4985729;28;20030;-81
2023/05/06 08:53:47;;;;;;;4.63;3.22;;;17.50;99.90;;;;;;4969164;28;20045;-81
2023/05/06 08:56:15;;;;;;;4.57;2.97;;;17.70;99.90;;;;;;4986579;28;20029;-80
2023/05/06 08:58:44;;;;;;;4.22;3.00;;;17.70;99.90;;;;;;4984247;28;20027;-80
2023/05/06 09:01:10;;;;;;;4.57;3.33;;;;;;;;;;4968453;28;20031;-80
2023/05/06 09:03:36;;;;;;;4.43;2.88;;;17.80;99.90;;;;;;4983037;28;20086;-81
2023/05/06 09:06:02;;;;;;;3.97;2.50;;;18.00;99.90;;;;;;4964887;28;20031;-82
2023/05/06 09:08:27;;;;;;;4.63;2.20;;;18.00;99.90;;;;;;4989052;28;20097;-82
2023/05/06 09:10:53;;;;;;;5.57;2.28;;;17.90;99.90;;;;;;4974148;28;20061;-81
2023/05/06 09:13:19;;;;;;;6.20;2.70;;;17.90;99.90;;;;;;4985904;28;20625;-78
2023/05/06 09:15:46;;;;;;;4.15;2.28;;;18.30;99.90;;;;;;4971311;28;20061;-80
2023/05/06 09:18:13;;;;;;;4.75;2.25;;;18.20;99.90;;;;;;4970925;28;20040;-82
2023/05/06 09:20:44;;;;;;;3.90;2.00;;;18.50;99.90;;;;;;4996130;28;20041;-81
2023/05/06 09:23:11;;;;;;;6.57;2.10;;;18.60;99.90;;;;;;4989889;28;20152;-82
2023/05/06 09:25:37;;;;;;;3.80;2.10;;;18.70;99.90;;;;;;4986065;28;20050;-83
2023/05/06 09:28:08;;;;;;;3.25;1.95;;;18.80;99.90;;;;;;4974344;28;20103;-81
2023/05/06 09:30:41;;;;;;;3.70;1.90;;;19.00;99.90;;;;;;4976227;28;20029;-81
2023/05/06 09:33:08;;;;;;;3.50;1.70;;;18.90;99.90;;;;;;4992729;28;20534;-80
2023/05/06 09:35:41;;;;;;;2.42;1.60;;;19.00;99.90;;;;;;4997705;28;20019;-82
2023/05/06 09:38:08;;;;;;;2.08;1.35;;;19.30;99.90;;;;;;4965517;28;20057;-81
2023/05/06 09:40:35;;;;;;;2.38;1.73;;;19.20;99.90;;;;;;4993347;28;20018;-79
2023/05/06 09:43:01;;;;;;;3.25;1.73;;;19.30;99.90;;;;;;4994894;28;20030;-80
2023/05/06 09:45:28;;;;;;;4.43;1.75;;;19.30;99.90;;;;;;4978781;28;20026;-81
2023/05/06 09:47:54;;;;;;;3.33;1.70;;;19.20;99.90;;;;;;4996538;28;20070;-82
2023/05/06 09:50:21;;;;;;;3.60;1.98;;;19.20;99.90;;;;;;4990614;28;20030;-80
2023/05/06 09:52:48;;;;;;;3.80;2.17;;;19.30;99.90;;;;;;4973858;28;20023;-81
2023/05/06 09:55:14;;;;;;;4.13;1.98;;;19.30;99.90;;;;;;4985815;28;21996;-81
2023/05/06 09:57:43;;;;;;;4.07;2.58;;;19.40;99.90;;;;;;4982877;28;20030;-82
2023/05/06 10:00:12;;;;;;;3.42;2.15;;;19.60;99.90;;;;;;4998660;28;20084;-81
2023/05/06 10:02:43;;;;;;;3.55;2.22;;;19.80;99.90;;;;;;4977630;28;20057;-80
2023/05/06 10:05:10;;;;;;;6.82;3.10;;;19.80;99.90;;;;;;4988951;28;20027;-82
2023/05/06 10:07:35;;;;;;;4.68;2.55;;;19.80;99.90;;;;;;4984704;28;20035;-80
2023/05/06 10:10:03;;;;;;;5.00;2.40;;;19.70;99.90;;;;;;4966643;28;20031;-80
2023/05/06 10:12:28;;;;;;;3.78;2.00;;;19.80;99.90;;;;;;4968191;28;20035;-78
2023/05/06 10:14:54;;;;;;;5.72;2.45;;;19.80;99.90;;;;;;4989351;28;20030;-80
2023/05/06 10:17:23;;;;;;;6.93;2.70;;;20.10;99.90;;;;;;4981458;28;20113;-81
2023/05/06 10:19:50;;;;;;;4.30;2.42;;;;;;;;;;4989630;28;20030;-82
2023/05/06 10:22:33;;;;;;;5.07;2.42;;;20.20;99.90;;;;;;4973287;28;20070;-81
2023/05/06 10:25:06;;;;;;;5.95;2.20;;;19.90;99.90;;;;;;4985342;28;20089;-81
2023/05/06 10:27:36;;;;;;;5.70;2.55;;;20.00;99.90;;;;;;4972302;28;20030;-82
2023/05/06 10:30:03;;;;;;;3.90;2.28;;;20.30;99.90;;;;;;4972645;28;20041;-82
2023/05/06 10:32:31;;;;;;;3.75;2.10;;;20.40;99.90;;;;;;4980589;28;20018;-79
2023/05/06 10:35:08;;;;;;;5.00;2.22;;;20.50;99.90;;;;;;4964261;28;20031;-83
2023/05/06 10:37:35;;;;;;;2.90;1.73;;;20.70;99.90;;;;;;4984992;28;20118;-83
2023/05/06 10:40:03;;;;;;;2.60;1.70;;;20.70;99.90;;;;;;4984981;28;20018;-81
2023/05/06 10:42:33;;;;;;;3.00;2.10;;;21.00;99.90;;;;;;4969918;28;20030;-80
2023/05/06 10:45:02;;;;;;;3.15;1.90;;;21.00;99.90;;;;;;4961036;28;20027;-83
2023/05/06 10:47:57;;;;;;;3.50;1.70;;;21.10;99.90;;;;;;4980887;28;20663;-79
2023/05/06 10:50:26;;;;;;;4.93;2.00;;;21.40;99.90;;;;;;4982163;28;20030;-80
2023/05/06 10:52:57;;;;;;;4.05;2.03;;;21.50;99.90;;;;;;4974968;28;20049;-79
2023/05/06 10:55:31;;;;;;;2.28;1.55;;;21.60;99.90;;;;;;4986111;28;20117;-81
2023/05/06 10:58:12;;;;;;;3.17;1.60;;;21.60;99.90;;;;;;4984323;28;20033;-81
2023/05/06 11:00:38;;;;;;;3.33;1.75;;;21.70;99.90;;;;;;4987121;28;20030;-83
2023/05/06 11:03:12;;;;;;;2.85;1.70;;;21.90;99.90;;;;;;4988924;28;20030;-82
2023/05/06 11:05:48;;;;;;;3.60;1.70;;;22.00;99.90;;;;;;4974487;28;20042;-83
2023/05/06 11:08:20;;;;;;;2.63;1.50;;;22.20;99.90;;;;;;4993997;28;20383;-82
2023/05/06 11:10:45;;;;;;;6.45;1.85;;;22.50;99.60;;;;;;4994338;28;20050;-82
2023/05/06 11:13:27;;;;;;;2.53;1.52;;;22.50;99.00;;;;;;4976326;28;20046;-80
2023/05/06 11:15:54;;;;;;;3.45;1.73;;;22.50;99.10;;;;;;4979519;28;20057;-79
2023/05/06 11:18:23;;;;;;;3.20;1.40;;;22.30;98.80;;;;;;4982469;28;20022;-83
2023/05/06 11:20:50;;;;;;;4.65;1.77;;;22.00;99.60;;;;;;4995702;28;20015;-82
2023/05/06 11:23:19;;;;;;;4.68;1.70;;;22.10;99.50;;;;;;4990696;28;20114;-81
2023/05/06 11:25:46;;;;;;;2.83;1.50;;;23.00;99.10;;;;;;4979456;28;20050;-79
2023/05/06 11:28:13;;;;;;;2.35;1.30;;;22.30;99.20;;;;;;4989195;28;20034;-84
2023/05/06 11:30:42;;;;;;;2.78;1.50;;;22.30;98.10;;;;;;4992134;28;20073;-80
2023/05/06 11:33:17;;;;;;;2.45;1.35;;;22.40;98.00;;;;;;4991952;28;20062;-81
2023/05/06 11:35:43;;;;;;;2.42;1.40;;;22.40;98.20;;;;;;4997434;28;20085;-81
2023/05/06 11:38:12;;;;;;;3.50;1.55;;;22.50;97.70;;;;;;4998450;28;20076;-82
2023/05/06 11:40:40;;;;;;;2.78;1.70;;;22.60;97.60;;;;;;4993184;28;20039;-81
2023/05/06 11:43:13;;;;;;;3.75;2.00;;;22.40;97.90;;;;;;4959244;28;20034;-78
2023/05/06 11:45:43;;;;;;;6.22;1.92;;;22.40;98.20;;;;;;4980149;28;20175;-79
2023/05/06 11:48:16;;;;;;;2.58;1.58;;;22.30;97.60;;;;;;4975105;28;20038;-80
2023/05/06 11:50:48;;;;;;;5.00;2.00;;;22.30;97.80;;;;;;4977138;28;20030;-79
2023/05/06 11:53:17;;;;;;;3.63;1.95;;;22.50;97.50;;;;;;4946923;28;20026;-81
2023/05/06 11:55:44;;;;;;;2.80;1.70;;;24.00;97.90;;;;;;4978697;28;20077;-80
2023/05/06 11:58:33;;;;;;;2.42;1.40;;;22.80;96.70;;;;;;4966240;28;20297;-80
2023/05/06 12:01:01;;;;;;;2.40;1.45;;;23.00;95.70;;;;;;4984027;28;20045;-81
2023/05/06 12:03:29;;;;;;;3.15;1.45;;;22.80;95.60;;;;;;4971779;28;20038;-78
2023/05/06 12:05:56;;;;;;;2.35;1.20;;;22.80;95.70;;;;;;4989622;28;20640;-80
2023/05/06 12:08:28;;;;;;;3.85;1.75;;;22.60;94.60;;;;;;4990031;28;20061;-82
2023/05/06 12:11:14;;;;;;;3.47;1.50;;;22.70;94.40;;;;;;4984065;28;20034;-80
2023/05/06 12:13:43;;;;;;;2.80;1.20;;;22.70;94.20;;;;;;4966435;28;20045;-82
2023/05/06 12:16:10;;;;;;;2.72;1.30;;;22.60;93.20;;;;;;4977243;28;20030;-81
2023/05/06 12:18:36;;;;;;;2.20;1.30;;;22.60;93.30;;;;;;4980788;28;20117;-82
2023/05/06 12:21:02;;;;;;;4.60;1.20;;;22.80;94.10;;;;;;4982235;28;20098;-81
2023/05/06 12:23:27;;;;;;;3.72;1.80;;;22.60;93.30;;;;;;4952601;28;20066;-80
2023/05/06 12:26:04;;;;;;;2.47;1.58;;;22.60;93.50;;;;;;4988321;28;20034;-79
2023/05/06 12:28:31;;;;;;;2.63;1.35;;;22.90;93.40;;;;;;4991869;28;20314;-80
2023/05/06 12:30:56;;;;;;;2.15;1.20;;;22.90;93.40;;;;;;4980075;28;20046;-81
2023/05/06 12:33:22;;;;;;;3.85;1.33;;;23.00;92.60;;;;;;4973202;28;20022;-81
2023/05/06 12:35:50;;;;;;;3.72;1.30;;;23.10;92.80;;;;;;4982294;28;20041;-80
2023/05/06 12:38:17;;;;;;;3.45;1.10;;;23.30;91.90;;;;;;4969903;28;20113;-80
2023/05/06 12:40:53;;;;;;;2.75;1.30;;;23.50;92.40;;;;;;4966419;28;20081;-82
2023/05/06 12:43:28;;;;;;;2.47;1.10;;;23.80;91.70;;;;;;4977337;28;20038;-80
2023/05/06 12:46:05;;;;;;;4.53;1.10;;;23.70;91.50;;;;;;4966309;28;20026;-79
2023/05/06 12:48:31;;;;;;;2.45;1.00;;;23.60;91.90;;;;;;4981175;28;20039;-79
2023/05/06 12:50:57;;;;;;;1.88;1.10;;;23.50;91.50;;;;;;4958180;28;20034;-81
2023/05/06 12:53:32;;;;;;;2.92;1.30;;;23.50;91.50;;;;;;4963545;28;20747;-77
2023/05/06 12:55:58;;;;;;;3.28;1.13;;;;;;;;;;4959531;28;20516;-82
2023/05/06 12:58:23;;;;;;;3.60;1.10;;;23.70;90.30;;;;;;4986918;28;20113;-83
2023/05/06 13:00:49;;;;;;;1.50;1.00;;;23.50;89.20;;;;;;4982173;28;20066;-82
2023/05/06 13:03:15;;;;;;;2.47;1.20;;;23.60;89.60;;;;;;5010851;23;20045;-85
2023/05/06 13:05:40;;;;;;;3.58;1.60;;;23.60;89.90;;;;;;4959791;28;20434;-84
2023/05/06 13:08:06;;;;;;;3.15;1.15;;;;;;;;;;4960785;28;20057;-87
2023/05/06 13:10:33;;;;;;;1.95;0.90;;;;;;;;;;4980495;28;20046;-86
2023/05/06 13:12:59;;;;;;;5.80;1.35;;;;;;;;;;4994236;28;20022;-85
2023/05/06 13:15:25;;;;;;;2.00;1.10;;;;;;;;;;4975566;28;20639;-86
2023/05/06 13:17:51;;;;;;;2.10;1.00;;;23.80;88.50;;;;;;4980858;28;20062;-85
2023/05/06 13:20:17;;;;;;;3.58;1.13;;;23.80;88.00;;;;;;4967802;28;20030;-87